^^
MeteoGriva-Weather Station Historical Data
Daily Summary for June 1, 2020 Units:  Metric    English   Both
Daily Weekly Monthly Yearly Custom
  High: Low: Average:
Temperature: 4.7 °C 0.7 °C 3 °C
Dew Point: 0.9 °C -7.5 °C -4.3 °C
Humidity: 87% 44.9% 59%
Wind Speed: 11km/h 0km/h 3.1km/h
Wind Gust: 19.2km/h - -
Wind- - ESE
Pressure: 1026.8 hPa 1020.3 hPa -
Precipitation: 0.0 mm    
Historical Graphs
 
 
Tabular Data for June 1, 2020
Time Temperature Dew Point Pressure Wind Wind Speed Wind Gust Humidity Rainfall Rate (Hourly) solar
00:04 3.5 °C -4.7 °C 1025.4 hPa ENE 1.4 km/h 5 km/h 54.7% 0.0 mm 0 W/m2
00:09 3.4 °C -4.7 °C 1025.7 hPa North 2.3 km/h 5.5 km/h 55% 0.0 mm 0 W/m2
00:14 3.3 °C -4.6 °C 1025.7 hPa NW 2 km/h 5 km/h 56.1% 0.0 mm 0 W/m2
00:19 3.1 °C -4.8 °C 1025.7 hPa WNW 3.2 km/h 6.1 km/h 55.8% 0.0 mm 0 W/m2
00:24 3.2 °C -4.9 °C 1025.7 hPa WNW 0.4 km/h 6.1 km/h 55.3% 0.0 mm 0 W/m2
00:29 3.3 °C -4.6 °C 1025.4 hPa NNE 0.2 km/h 3.2 km/h 56.1% 0.0 mm 0 W/m2
00:34 3.3 °C -4.9 °C 1025.4 hPa NNE 1.5 km/h 5.5 km/h 54.9% 0.0 mm 0 W/m2
00:39 3.3 °C -4.9 °C 1025.4 hPa NNW 1.6 km/h 4.3 km/h 54.9% 0.0 mm 0 W/m2
00:44 3.2 °C -4.7 °C 1025.4 hPa North 0.3 km/h 4.3 km/h 56.1% 0.0 mm 0 W/m2
00:49 3.1 °C -4.3 °C 1025.4 hPa NW 0.2 km/h 2.6 km/h 57.9% 0.0 mm 0 W/m2
00:54 3 °C -4.4 °C 1025.4 hPa WNW 1.1 km/h 4 km/h 57.9% 0.0 mm 0 W/m2
00:59 3 °C -4.6 °C 1025.4 hPa NW 0.3 km/h 3.2 km/h 57.2% 0.0 mm 0 W/m2
01:04 3 °C -4.4 °C 1025.4 hPa WSW 0.9 km/h 6.4 km/h 58.1% 0.0 mm 0 W/m2
01:09 3.1 °C -4.2 °C 1025.4 hPa West 2 km/h 6.4 km/h 58.7% 0.0 mm 0 W/m2
01:14 3.2 °C -4.3 °C 1025.4 hPa WNW 0.9 km/h 4.3 km/h 58% 0.0 mm 0 W/m2
01:19 3.3 °C -4.4 °C 1025.4 hPa WNW 3.5 km/h 6.1 km/h 57.5% 0.0 mm 0 W/m2
01:24 3.4 °C -5.1 °C 1025.4 hPa NW 2.5 km/h 6.1 km/h 53.5% 0.0 mm 0 W/m2
01:29 3.6 °C -4.6 °C 1025.4 hPa WNW 1.5 km/h 6.1 km/h 54.9% 0.0 mm 0 W/m2
01:34 3.6 °C -4.4 °C 1025.7 hPa West 0.9 km/h 5 km/h 55.7% 0.0 mm 0 W/m2
01:39 3.7 °C -4.5 °C 1025.7 hPa WSW 2.7 km/h 4.7 km/h 54.9% 0.0 mm 0 W/m2
01:44 3.9 °C -4.1 °C 1025.7 hPa WNW 2.2 km/h 6.1 km/h 56% 0.0 mm 0 W/m2
01:49 3.8 °C -3.7 °C 1025.7 hPa NW 3.7 km/h 6.1 km/h 57.8% 0.0 mm 0 W/m2
01:54 3.8 °C -4.2 °C 1025.7 hPa WSW 2.2 km/h 6.1 km/h 55.7% 0.0 mm 0 W/m2
01:59 3.9 °C -4.1 °C 1025.4 hPa WSW 3.7 km/h 5.5 km/h 56% 0.0 mm 0 W/m2
02:04 3.9 °C -4.1 °C 1025.4 hPa WSW 3.8 km/h 7.6 km/h 56% 0.0 mm 0 W/m2
02:09 3.8 °C -4.4 °C 1025.4 hPa SW 3.8 km/h 7.9 km/h 54.9% 0.0 mm 0 W/m2
02:14 3.8 °C -4.4 °C 1025.4 hPa SW 1.4 km/h 5.8 km/h 55.1% 0.0 mm 0 W/m2
02:19 3.7 °C -4.4 °C 1025.7 hPa SE 0.5 km/h 5.5 km/h 55.5% 0.0 mm 0 W/m2
02:24 3.5 °C -4.7 °C 1025.7 hPa Calm   4.7 km/h 55% 0.0 mm 0 W/m2
02:29 3.3 °C -5 °C 1025.7 hPa SSW 0.6 km/h 4 km/h 54.3% 0.0 mm 0 W/m2
02:34 3.1 °C -5.2 °C 1025.7 hPa WSW 0.9 km/h 4 km/h 54.3% 0.0 mm 0 W/m2
02:39 2.8 °C -5.3 °C 1025.7 hPa West 0.3 km/h 4 km/h 54.8% 0.0 mm 0 W/m2
02:44 2.7 °C -5.5 °C 1025.7 hPa NW 1.2 km/h 4.3 km/h 54.8% 0.0 mm 0 W/m2
02:49 2.7 °C -5.7 °C 1025.7 hPa WNW 2 km/h 5 km/h 54.1% 0.0 mm 0 W/m2
02:54 2.7 °C -6 °C 1025.7 hPa WNW 1.9 km/h 5 km/h 52.8% 0.0 mm 0 W/m2
02:59 2.8 °C -6.5 °C 1025.7 hPa NW 2 km/h 4.7 km/h 50.4% 0.0 mm 0 W/m2
03:04 2.9 °C -6 °C 1025.7 hPa NNE 0.8 km/h 4.7 km/h 52.1% 0.0 mm 0 W/m2
03:09 2.9 °C -5.6 °C 1025.7 hPa NNE 1.6 km/h 4 km/h 53.4% 0.0 mm 0 W/m2
03:14 2.8 °C -5.2 °C 1025.7 hPa WNW 1.1 km/h 4.3 km/h 55.4% 0.0 mm 0 W/m2
03:19 2.7 °C -5 °C 1025.7 hPa SW 3 km/h 6.4 km/h 56.6% 0.0 mm 0 W/m2
03:24 2.9 °C -4.9 °C 1025.7 hPa WSW 1.7 km/h 5 km/h 56.3% 0.0 mm 0 W/m2
03:29 3 °C -4.8 °C 1025.7 hPa ENE 0.5 km/h 3.2 km/h 56.9% 0.0 mm 0 W/m2
03:34 3 °C -4.8 °C 1025.7 hPa North 2.3 km/h 5 km/h 56.4% 0.0 mm 0 W/m2
03:39 3 °C -4.9 °C 1025.7 hPa NNW 1.4 km/h 3.5 km/h 56.1% 0.0 mm 0 W/m2
03:44 2.9 °C -4.8 °C 1025.7 hPa Calm   1.8 km/h 56.7% 0.0 mm 0 W/m2
03:49 2.9 °C -5.1 °C 1025.7 hPa ESE 0.3 km/h 3.5 km/h 55.5% 0.0 mm 0 W/m2
03:54 2.9 °C -5.5 °C 1025.7 hPa West 0.9 km/h 4.7 km/h 53.9% 0.0 mm 0 W/m2
03:59 2.8 °C -5.5 °C 1025.7 hPa West 1 km/h 5 km/h 54.5% 0.0 mm 0 W/m2
04:04 2.7 °C -5.2 °C 1025.7 hPa SW 2.8 km/h 5 km/h 56% 0.0 mm 0 W/m2
04:09 2.6 °C -5 °C 1025.7 hPa SSE 2 km/h 5.5 km/h 57.1% 0.0 mm 0 W/m2
04:14 2.4 °C -4.9 °C 1025.7 hPa NNW 5 km/h 7.6 km/h 58.5% 0.0 mm 0 W/m2
04:19 2.2 °C -4.7 °C 1025.7 hPa SW 0.9 km/h 6.4 km/h 60% 0.0 mm 0 W/m2
04:24 2 °C -4.6 °C 1025.7 hPa North 4.3 km/h 8.7 km/h 61.3% 0.0 mm 0 W/m2
04:29 1.7 °C -4.8 °C 1025.7 hPa NW 2.2 km/h 8.2 km/h 61.8% 0.0 mm 0 W/m2
04:34 1.7 °C -4.7 °C 1025.7 hPa NW 0.5 km/h 5.8 km/h 62.7% 0.0 mm 0 W/m2
04:39 1.7 °C -4.6 °C 1025.7 hPa NW 1.7 km/h 5.8 km/h 62.9% 0.0 mm 0 W/m2
04:44 1.7 °C -4.7 °C 1025.7 hPa NW 0.6 km/h 5.8 km/h 62.2% 0.0 mm 0 W/m2
04:49 1.8 °C -4.7 °C 1025.7 hPa WSW 0.2 km/h 3.2 km/h 62% 0.0 mm 0 W/m2
04:54 1.9 °C -4.6 °C 1025.7 hPa Calm   3.2 km/h 62% 0.0 mm 0 W/m2
04:59 1.9 °C -4.6 °C 1025.7 hPa North 3.5 km/h 9 km/h 62.3% 0.0 mm 0 W/m2
05:04 1.6 °C -4.5 °C 1025.7 hPa North 4.3 km/h 9 km/h 64% 0.0 mm 0 W/m2
05:09 1.1 °C -4.4 °C 1025.7 hPa NNW 3.3 km/h 9 km/h 66.4% 0.0 mm 0 W/m2
05:14 0.7 °C -4.9 °C 1025.7 hPa North 3.3 km/h 6.1 km/h 65.8% 0.0 mm 0 W/m2
05:19 0.7 °C -5 °C 1025.7 hPa NW 2 km/h 6.1 km/h 65.4% 0.0 mm 0 W/m2
05:24 0.8 °C -5.1 °C 1025.7 hPa NW 0.4 km/h 5 km/h 64.8% 0.0 mm 0 W/m2
05:29 0.9 °C -5.1 °C 1025.7 hPa North 3.7 km/h 6.4 km/h 64.1% 0.0 mm 0 W/m2
05:34 1 °C -5.2 °C 1025.7 hPa NW 2.9 km/h 6.1 km/h 63.3% 0.0 mm 0 W/m2
05:39 1.2 °C -5 °C 1025.7 hPa NNW 2.3 km/h 6.1 km/h 63% 0.0 mm 0 W/m2
05:44 1.3 °C -5.1 °C 1025.7 hPa NW 3.1 km/h 6.1 km/h 62.1% 0.0 mm 0 W/m2
05:49 1.5 °C -5.1 °C 1025.7 hPa NW 1.8 km/h 5.5 km/h 61.6% 0.0 mm 0 W/m2
05:54 1.6 °C -4.8 °C 1025.7 hPa NE 0.6 km/h 3.2 km/h 62.5% 0.0 mm 0 W/m2
05:59 1.5 °C -4.9 °C 1025.7 hPa NNW 0.1 km/h 2.6 km/h 62.4% 0.0 mm 0 W/m2
06:04 1.5 °C -5.1 °C 1026.1 hPa Calm   2.6 km/h 61.7% 0.0 mm 0 W/m2
06:09 1.5 °C -5 °C 1026.1 hPa NE 0.3 km/h 2.9 km/h 62% 0.0 mm 0 W/m2
06:14 1.4 °C -5.2 °C 1025.7 hPa Calm     61.5% 0.0 mm 0 W/m2
06:19 1.4 °C -5.5 °C 1025.7 hPa NW 2.2 km/h 4.3 km/h 59.9% 0.0 mm 0 W/m2
06:24 1.5 °C -5.4 °C 1025.7 hPa NW 1.5 km/h 4.3 km/h 60.2% 0.0 mm 0 W/m2
06:29 1.5 °C -5.8 °C 1025.7 hPa NW 2.4 km/h 4.3 km/h 57.9% 0.0 mm 0 W/m2
06:34 1.7 °C -5.8 °C 1026.1 hPa NW 2.6 km/h 4.3 km/h 57.4% 0.0 mm 0 W/m2
06:39 1.8 °C -5.7 °C 1026.1 hPa NW 2.9 km/h 5 km/h 57.8% 0.0 mm 0 W/m2
06:44 1.8 °C -5.6 °C 1025.7 hPa NW 3.9 km/h 5.5 km/h 58.1% 0.0 mm 0 W/m2
06:49 1.7 °C -5.7 °C 1025.7 hPa WNW 2.4 km/h 5.5 km/h 58.1% 0.0 mm 0 W/m2
06:54 1.7 °C -5.8 °C 1025.7 hPa NW 1.2 km/h 4.7 km/h 57.4% 0.0 mm 0 W/m2
06:59 1.8 °C -5.7 °C 1025.7 hPa Calm   2.9 km/h 57.6% 0.0 mm 0 W/m2
07:04 1.7 °C -5.6 °C 1026.1 hPa SW 0.5 km/h 2.6 km/h 58.5% 0.0 mm 0 W/m2
07:09 1.7 °C -5.6 °C 1026.1 hPa Calm   2.6 km/h 58.5% 0.0 mm 0 W/m2
07:14 1.6 °C -5.3 °C 1026.1 hPa Calm     59.8% 0.0 mm 0 W/m2
07:19 1.5 °C -5.9 °C 1026.1 hPa Calm     57.7% 0.0 mm 0 W/m2
07:24 1.5 °C -6.2 °C 1026.1 hPa NW 0.3 km/h 2.9 km/h 56.3% 0.0 mm 0 W/m2
07:29 1.4 °C -6.3 °C 1026.1 hPa Calm   2.9 km/h 56.5% 0.0 mm 2 W/m2
07:34 1.4 °C -6.5 °C 1026.1 hPa NW 0.1 km/h 2.6 km/h 55.5% 0.0 mm 3 W/m2
07:39 1.5 °C -6.8 °C 1026.1 hPa NE 1.9 km/h 5 km/h 53.9% 0.0 mm 4 W/m2
07:44 1.6 °C -7 °C 1026.1 hPa NNW 2.3 km/h 5.5 km/h 52.5% 0.0 mm 7 W/m2
07:49 1.7 °C -7.1 °C 1026.4 hPa NNW 1.4 km/h 6.1 km/h 52% 0.0 mm 11 W/m2
07:54 1.7 °C -7.2 °C 1026.4 hPa NNE 0.6 km/h 6.1 km/h 51.6% 0.0 mm 14 W/m2
07:59 1.7 °C -7 °C 1026.4 hPa Calm   2.9 km/h 52.3% 0.0 mm 19 W/m2
08:04 1.6 °C -6.8 °C 1026.4 hPa East 0.6 km/h 3.5 km/h 53.3% 0.0 mm 24 W/m2
08:09 1.6 °C -6.3 °C 1026.4 hPa Calm   3.5 km/h 55.8% 0.0 mm 27 W/m2
08:14 1.6 °C -6 °C 1026.4 hPa Calm   3.5 km/h 56.8% 0.0 mm 30 W/m2
08:19 1.6 °C -6.2 °C 1026.4 hPa Calm   3.2 km/h 55.9% 0.0 mm 34 W/m2
08:24 1.6 °C -6.6 °C 1026.4 hPa Calm   2.9 km/h 54.6% 0.0 mm 39 W/m2
08:29 1.7 °C -6.8 °C 1026.4 hPa Calm   3.2 km/h 53.3% 0.0 mm 42 W/m2
08:34 1.7 °C -7 °C 1026.8 hPa NNE 1.9 km/h 3.5 km/h 52.3% 0.0 mm 46 W/m2
08:39 1.8 °C -6.6 °C 1026.8 hPa NNE 1.8 km/h 4.3 km/h 53.6% 0.0 mm 51 W/m2
08:44 1.8 °C -7 °C 1026.8 hPa NNE 1.1 km/h 4.3 km/h 51.8% 0.0 mm 53 W/m2
08:49 1.9 °C -7.3 °C 1026.8 hPa NNE 3.2 km/h 5.5 km/h 50.4% 0.0 mm 56 W/m2
08:54 1.9 °C -7.5 °C 1026.8 hPa North 3 km/h 5.5 km/h 49.7% 0.0 mm 60 W/m2
08:59 2 °C -7.3 °C 1026.4 hPa North 3.9 km/h 7.6 km/h 50.3% 0.0 mm 65 W/m2
09:04 2 °C -7.1 °C 1026.4 hPa NNE 6.1 km/h 7.6 km/h 51% 0.0 mm 65 W/m2
09:09 2.1 °C -7.1 °C 1026.4 hPa North 7.5 km/h 12.2 km/h 50.6% 0.0 mm 74 W/m2
09:14 2.2 °C -7.2 °C 1020.7 hPa North 4.4 km/h 12.2 km/h 49.8% 0.0 mm 71 W/m2
09:19 2.3 °C -7.4 °C 1020.7 hPa North 7.6 km/h 15.8 km/h 48.8% 0.0 mm 80 W/m2
09:24 2.3 °C -7.4 °C 1020.7 hPa North 10.3 km/h 16.6 km/h 48.8% 0.0 mm 80 W/m2
09:29 2.2 °C -7.3 °C 1024.0 hPa North 7.6 km/h 16.6 km/h 49.3% 0.0 mm 72 W/m2
09:34 2.1 °C -7.3 °C 1024.0 hPa North 6.8 km/h 13.4 km/h 50% 0.0 mm 78 W/m2
09:37 2 °C -7.3 °C 1024.0 hPa North 9.3 km/h 19.2 km/h 50% 0.0 mm 80 W/m2
09:44 2 °C -7.2 °C 1022.7 hPa North 8.6 km/h 19.2 km/h 50.2% 0.0 mm 72 W/m2
09:49 2.1 °C -7.2 °C 1022.7 hPa North 8.2 km/h 18 km/h 50% 0.0 mm 76 W/m2
09:54 2.1 °C -7.3 °C 1022.7 hPa North 11 km/h 16.6 km/h 49.9% 0.0 mm 90 W/m2
09:59 2.2 °C -7.3 °C 1022.7 hPa North 8.4 km/h 18.7 km/h 49.3% 0.0 mm 89 W/m2
10:04 2.3 °C -7.2 °C 1022.7 hPa North 7.8 km/h 18.7 km/h 49.2% 0.0 mm 90 W/m2
10:09 2.3 °C -7.3 °C 1022.7 hPa North 8.5 km/h 18.3 km/h 49.1% 0.0 mm 93 W/m2
10:14 2.4 °C -7.2 °C 1022.7 hPa North 8.3 km/h 18.3 km/h 49% 0.0 mm 95 W/m2
10:19 2.5 °C -7.1 °C 1022.7 hPa North 8 km/h 14.3 km/h 49% 0.0 mm 94 W/m2
10:24 2.5 °C -7.1 °C 1022.7 hPa North 8.4 km/h 14.3 km/h 49% 0.0 mm 94 W/m2
10:29 2.5 °C -7.1 °C 1022.7 hPa NNE 8.2 km/h 14 km/h 49% 0.0 mm 93 W/m2
10:34 2.5 °C -7.1 °C 1023.0 hPa North 7.1 km/h 13.7 km/h 49% 0.0 mm 86 W/m2
10:39 2.6 °C -7 °C 1023.0 hPa North 6.7 km/h 14.8 km/h 49% 0.0 mm 85 W/m2
10:44 2.5 °C -7.1 °C 1023.0 hPa North 5.8 km/h 12.6 km/h 49% 0.0 mm 82 W/m2
10:49 2.6 °C -7 °C 1023.0 hPa North 6.5 km/h 11.1 km/h 49.1% 0.0 mm 96 W/m2
10:54 2.6 °C -7 °C 1023.0 hPa NNE 6.1 km/h 13.4 km/h 49.1% 0.0 mm 100 W/m2
10:59 2.6 °C -7 °C 1023.0 hPa NE 4 km/h 9.3 km/h 49% 0.0 mm 100 W/m2
11:04 2.7 °C -6.9 °C 1023.0 hPa NNE 3.6 km/h 6.4 km/h 49% 0.0 mm 98 W/m2
11:09 2.7 °C -6.9 °C 1023.0 hPa NNE 1.6 km/h 6.4 km/h 49% 0.0 mm 97 W/m2
11:14 2.9 °C -6.7 °C 1022.7 hPa East 1.2 km/h 6.1 km/h 49% 0.0 mm 97 W/m2
11:19 2.9 °C -6.7 °C 1022.7 hPa ENE 4 km/h 7.9 km/h 48.9% 0.0 mm 87 W/m2
11:24 2.9 °C -6.8 °C 1022.7 hPa NE 3.8 km/h 7.6 km/h 48.7% 0.0 mm 86 W/m2
11:29 2.9 °C -6.7 °C 1022.7 hPa NNE 3.2 km/h 8.2 km/h 49% 0.0 mm 98 W/m2
11:34 2.8 °C -6.6 °C 1022.4 hPa NE 4.8 km/h 8.2 km/h 49.9% 0.0 mm 120 W/m2
11:39 2.8 °C -6.6 °C 1022.4 hPa NE 4.4 km/h 7.9 km/h 50% 0.0 mm 128 W/m2
11:44 2.9 °C -6.5 °C 1022.4 hPa NNE 2 km/h 7.9 km/h 50% 0.0 mm 159 W/m2
11:49 3.1 °C -6.3 °C 1022.4 hPa North 4.4 km/h 10.8 km/h 50% 0.0 mm 160 W/m2
11:54 3.2 °C -6.3 °C 1022.0 hPa NE 3.4 km/h 8.7 km/h 49.7% 0.0 mm 162 W/m2
11:59 3.2 °C -6.5 °C 1022.0 hPa ENE 2.9 km/h 8.2 km/h 49% 0.0 mm 162 W/m2
12:04 3.3 °C -6.4 °C 1022.0 hPa NNE 4.3 km/h 8.2 km/h 49.1% 0.0 mm 150 W/m2
12:09 3.4 °C -6.3 °C 1021.7 hPa NNE 4 km/h 8.2 km/h 48.9% 0.0 mm 166 W/m2
12:14 3.5 °C -6.1 °C 1021.7 hPa NNE 6.7 km/h 10.8 km/h 49.3% 0.0 mm 170 W/m2
12:19 3.5 °C -5.9 °C 1021.7 hPa North 5.2 km/h 11.1 km/h 50% 0.0 mm 165 W/m2
12:24 3.6 °C -5.9 °C 1021.7 hPa NNE 6.6 km/h 10.8 km/h 49.7% 0.0 mm 157 W/m2
12:29 3.6 °C -6.1 °C 1021.3 hPa North 6.7 km/h 12.6 km/h 49% 0.0 mm 175 W/m2
12:34 3.6 °C -6.1 °C 1021.3 hPa NNE 5 km/h 12.6 km/h 49% 0.0 mm 179 W/m2
12:39 3.8 °C -6.1 °C 1021.3 hPa East 4.3 km/h 12.2 km/h 48.6% 0.0 mm 197 W/m2
12:44 3.8 °C -6.1 °C 1021.3 hPa NE 5.8 km/h 12.2 km/h 48.2% 0.0 mm 193 W/m2
12:49 3.8 °C -6.2 °C 1021.3 hPa NE 6.8 km/h 10.8 km/h 48.1% 0.0 mm 196 W/m2
12:54 3.8 °C -6.2 °C 1021.3 hPa NE 5 km/h 9.7 km/h 48% 0.0 mm 198 W/m2
12:59 3.9 °C -6.1 °C 1021.3 hPa NNE 4.1 km/h 9 km/h 47.9% 0.0 mm 347 W/m2
13:04 4 °C -6.3 °C 1021.3 hPa North 4.9 km/h 10.1 km/h 47% 0.0 mm 200 W/m2
13:09 4 °C -6.2 °C 1021.0 hPa NE 5.2 km/h 11.6 km/h 47.3% 0.0 mm 197 W/m2
13:14 4.1 °C -6.2 °C 1021.0 hPa NE 4.7 km/h 9 km/h 47.3% 0.0 mm 193 W/m2
13:19 4.3 °C -6.1 °C 1021.0 hPa NE 5 km/h 10.8 km/h 46.8% 0.0 mm 186 W/m2
13:24 4.3 °C -6 °C 1021.0 hPa NNE 5.6 km/h 9.7 km/h 47% 0.0 mm 184 W/m2
13:29 4.3 °C -6 °C 1021.0 hPa NE 4 km/h 10.5 km/h 47% 0.0 mm 166 W/m2
13:34 4.4 °C -6.1 °C 1021.0 hPa NNE 5.3 km/h 10.5 km/h 46.5% 0.0 mm 162 W/m2
13:39 4.4 °C -6 °C 1021.0 hPa NNE 4.9 km/h 9 km/h 46.7% 0.0 mm 158 W/m2
13:44 4.3 °C -6 °C 1021.0 hPa North 5.7 km/h 11.1 km/h 46.9% 0.0 mm 158 W/m2
13:49 4.3 °C -6.2 °C 1020.7 hPa North 5.6 km/h 11.9 km/h 46.2% 0.0 mm 150 W/m2
13:54 4.3 °C -6.3 °C 1020.7 hPa NNE 7.2 km/h 14.3 km/h 45.8% 0.0 mm 145 W/m2
13:59 4.4 °C -6.3 °C 1020.7 hPa NNE 6.4 km/h 10.8 km/h 45.9% 0.0 mm 167 W/m2
14:04 4.5 °C -6.4 °C 1020.7 hPa NNE 6 km/h 13.4 km/h 45% 0.0 mm 167 W/m2
14:09 4.5 °C -6.4 °C 1020.7 hPa NNE 5.8 km/h 11.1 km/h 44.9% 0.0 mm 166 W/m2
14:14 4.6 °C -6.1 °C 1020.7 hPa NNE 5.6 km/h 11.1 km/h 45.5% 0.0 mm 187 W/m2
14:19 4.6 °C -5.9 °C 1020.7 hPa NNE 5.2 km/h 10.8 km/h 46.3% 0.0 mm 188 W/m2
14:24 4.7 °C -5.8 °C 1020.3 hPa North 6.5 km/h 13.4 km/h 46.5% 0.0 mm 143 W/m2
14:29 4.7 °C -6.1 °C 1020.3 hPa North 4.8 km/h 10.8 km/h 45.6% 0.0 mm 146 W/m2
14:34 4.6 °C -5.2 °C 1020.3 hPa NNE 5.7 km/h 10.5 km/h 49.2% 0.0 mm 143 W/m2
14:39 4.6 °C -4.9 °C 1020.3 hPa ENE 3.3 km/h 10.1 km/h 50% 0.0 mm 154 W/m2
14:44 4.7 °C -5.4 °C 1020.3 hPa NNE 4.7 km/h 8.2 km/h 47.6% 0.0 mm 156 W/m2
14:49 4.7 °C -4.8 °C 1020.7 hPa NNE 4.1 km/h 8.2 km/h 49.8% 0.0 mm 143 W/m2
14:54 4.7 °C -5.1 °C 1020.3 hPa NE 5.4 km/h 10.5 km/h 49.2% 0.0 mm 116 W/m2
14:59 4.5 °C -5 °C 1020.3 hPa NE 5.1 km/h 8.7 km/h 50% 0.0 mm 116 W/m2
15:04 4.4 °C -5 °C 1020.3 hPa NE 6 km/h 9.3 km/h 50.4% 0.0 mm 103 W/m2
15:09 4.4 °C -5.1 °C 1020.3 hPa NNE 4.3 km/h 10.1 km/h 50% 0.0 mm 83 W/m2
15:14 4.5 °C -4 °C 1020.3 hPa ENE 2.7 km/h 10.1 km/h 53.8% 0.0 mm 73 W/m2
15:19 4.5 °C -3.8 °C 1020.3 hPa East 3.8 km/h 7.6 km/h 54.6% 0.0 mm 62 W/m2
15:24 4.5 °C -3.7 °C 1020.3 hPa NE 4.4 km/h 8.7 km/h 55% 0.0 mm 52 W/m2
15:29 4.5 °C -3.7 °C 1020.3 hPa NNE 3.8 km/h 9.3 km/h 55.2% 0.0 mm 51 W/m2
15:34 4.5 °C -3.7 °C 1020.3 hPa NNE 4.6 km/h 8.2 km/h 55% 0.0 mm 48 W/m2
15:39 4.4 °C -3.6 °C 1020.3 hPa NNE 3.5 km/h 7.6 km/h 56% 0.0 mm 47 W/m2
15:44 4.3 °C -3.4 °C 1020.3 hPa NNE 3.9 km/h 7.2 km/h 57% 0.0 mm 43 W/m2
15:49 4.3 °C -3.3 °C 1020.3 hPa ENE 3.8 km/h 7.2 km/h 57.8% 0.0 mm 42 W/m2
15:54 4.3 °C -3.3 °C 1020.3 hPa ENE 3.9 km/h 9.3 km/h 57.2% 0.0 mm 40 W/m2
15:59 4.3 °C -3.4 °C 1020.3 hPa ENE 2.6 km/h 6.4 km/h 57.2% 0.0 mm 37 W/m2
16:04 4.3 °C -3.2 °C 1020.3 hPa East 4.1 km/h 7.9 km/h 58% 0.0 mm 34 W/m2
16:09 4.2 °C -3.3 °C 1020.3 hPa ENE 3.2 km/h 8.2 km/h 58% 0.0 mm 32 W/m2
16:14 4.2 °C -3.2 °C 1020.3 hPa East 3.2 km/h 6.9 km/h 58.6% 0.0 mm 27 W/m2
16:19 4.1 °C -3.2 °C 1020.3 hPa East 1.9 km/h 6.9 km/h 59% 0.0 mm 23 W/m2
16:24 4.1 °C -3.2 °C 1020.3 hPa East 1.4 km/h 6.1 km/h 59% 0.0 mm 21 W/m2
16:29 4 °C -3.1 °C 1020.3 hPa East 1 km/h 6.1 km/h 59.8% 0.0 mm 16 W/m2
16:34 3.9 °C -3.1 °C 1020.3 hPa ENE 1.4 km/h 7.2 km/h 60% 0.0 mm 13 W/m2
16:39 3.9 °C -3.1 °C 1020.3 hPa NE 3.3 km/h 7.9 km/h 60% 0.0 mm 12 W/m2
16:44 3.8 °C -3 °C 1020.3 hPa NNE 3.6 km/h 5 km/h 60.7% 0.0 mm 9 W/m2
16:49 3.8 °C -3 °C 1020.3 hPa NNE 2.4 km/h 4 km/h 61% 0.0 mm 7 W/m2
16:54 3.7 °C -3.1 °C 1020.3 hPa NNE 2.6 km/h 4.7 km/h 61% 0.0 mm 5 W/m2
16:59 3.7 °C -3.1 °C 1020.3 hPa NE 3.3 km/h 5.5 km/h 61% 0.0 mm 3 W/m2
17:04 3.7 °C -3.1 °C 1020.3 hPa NE 3.7 km/h 6.1 km/h 61% 0.0 mm 2 W/m2
17:09 3.7 °C -3.2 °C 1020.3 hPa NE 2.6 km/h 5.8 km/h 61% 0.0 mm 2 W/m2
17:14 3.6 °C -3.3 °C 1020.3 hPa NE 3.7 km/h 5.5 km/h 60.5% 0.0 mm 0 W/m2
17:19 3.6 °C -3.4 °C 1020.7 hPa NE 2.4 km/h 5 km/h 60% 0.0 mm 0 W/m2
17:24 3.6 °C -3.4 °C 1020.7 hPa NNE 2 km/h 3.5 km/h 60% 0.0 mm 0 W/m2
17:29 3.6 °C -3.4 °C 1020.3 hPa NNE 1.5 km/h 4.3 km/h 60% 0.0 mm 0 W/m2
17:34 3.6 °C -3.4 °C 1020.3 hPa NE 2.9 km/h 4.3 km/h 60% 0.0 mm 0 W/m2
17:39 3.6 °C -3.4 °C 1020.3 hPa NE 2.7 km/h 4.3 km/h 60% 0.0 mm 0 W/m2
17:44 3.6 °C -3.4 °C 1020.3 hPa NE 3.4 km/h 5 km/h 60% 0.0 mm 0 W/m2
17:49 3.6 °C -3.4 °C 1020.3 hPa NNE 2.5 km/h 4.7 km/h 60% 0.0 mm 0 W/m2
17:54 3.6 °C -3.4 °C 1020.3 hPa NE 2.7 km/h 5.5 km/h 60% 0.0 mm 0 W/m2
17:59 3.6 °C -3.4 °C 1020.3 hPa NNE 2.8 km/h 5 km/h 60% 0.0 mm 0 W/m2
18:04 3.6 °C -3.4 °C 1020.3 hPa NE 3.5 km/h 5.5 km/h 60% 0.0 mm 0 W/m2
18:09 3.6 °C -3.5 °C 1020.7 hPa NE 3.6 km/h 5.5 km/h 59.6% 0.0 mm 0 W/m2
18:14 3.5 °C -3.5 °C 1020.7 hPa NE 3.1 km/h 4.7 km/h 60% 0.0 mm 0 W/m2
18:19 3.5 °C -3.4 °C 1020.7 hPa NE 3 km/h 6.1 km/h 60.6% 0.0 mm 0 W/m2
18:24 3.5 °C -3.3 °C 1020.7 hPa NE 2.1 km/h 3.5 km/h 61% 0.0 mm 0 W/m2
18:29 3.5 °C -3.3 °C 1020.7 hPa NNE 1.6 km/h 3.5 km/h 61% 0.0 mm 0 W/m2
18:34 3.5 °C -3.3 °C 1020.7 hPa NE 2.9 km/h 4.7 km/h 61% 0.0 mm 0 W/m2
18:39 3.5 °C -3.3 °C 1020.7 hPa NNE 1.4 km/h 4.7 km/h 61% 0.0 mm 0 W/m2
18:44 3.5 °C -3.2 °C 1020.7 hPa NNE 2.3 km/h 4 km/h 61.2% 0.0 mm 0 W/m2
18:49 3.5 °C -3.2 °C 1020.7 hPa NNE 1.5 km/h 4 km/h 61.6% 0.0 mm 0 W/m2
18:54 3.5 °C -3.2 °C 1020.7 hPa NNE 2.3 km/h 4 km/h 61.2% 0.0 mm 0 W/m2
18:59 3.5 °C -3.2 °C 1021.0 hPa NNE 2 km/h 4 km/h 61.6% 0.0 mm 0 W/m2
19:04 3.5 °C -3.1 °C 1021.0 hPa NNE 2.6 km/h 4.3 km/h 62% 0.0 mm 0 W/m2
19:09 3.5 °C -2.9 °C 1021.0 hPa NNE 1.4 km/h 3.5 km/h 63% 0.0 mm 0 W/m2
19:14 3.5 °C -2.6 °C 1021.0 hPa NE 1.7 km/h 4.3 km/h 64.4% 0.0 mm 0 W/m2
19:19 3.5 °C -2.4 °C 1021.0 hPa NNE 1.9 km/h 4.3 km/h 65.2% 0.0 mm 0 W/m2
19:24 3.5 °C -2.5 °C 1021.0 hPa NE 1.6 km/h 4.3 km/h 64.6% 0.0 mm 0 W/m2
19:29 3.5 °C -2.7 °C 1021.0 hPa NE 2.2 km/h 4 km/h 64% 0.0 mm 0 W/m2
19:34 3.5 °C -2.6 °C 1021.0 hPa NNE 1.6 km/h 3.5 km/h 64.3% 0.0 mm 0 W/m2
19:39 3.6 °C -1.8 °C 1021.0 hPa North 1.2 km/h 3.2 km/h 67.5% 0.0 mm 0 W/m2
19:44 3.6 °C -1.5 °C 1021.0 hPa North 2.3 km/h 4.7 km/h 69.3% 0.0 mm 0 W/m2
19:49 3.5 °C -1.1 °C 1021.0 hPa NE 0.9 km/h 4.7 km/h 71.9% 0.0 mm 0 W/m2
19:54 3.5 °C -1.2 °C 1021.0 hPa NE 1.8 km/h 4 km/h 71.2% 0.0 mm 0 W/m2
19:59 3.5 °C -1.2 °C 1021.0 hPa NNE 1.1 km/h 3.5 km/h 71.2% 0.0 mm 0 W/m2
20:04 3.5 °C -1.3 °C 1021.3 hPa NNE 2.7 km/h 4.3 km/h 70.5% 0.0 mm 0 W/m2
20:09 3.5 °C -1.2 °C 1021.3 hPa NNE 3.1 km/h 4.3 km/h 71.4% 0.0 mm 0 W/m2
20:14 3.4 °C -1.1 °C 1021.3 hPa NNE 2.2 km/h 4.3 km/h 72.7% 0.0 mm 0 W/m2
20:19 3.5 °C -1.1 °C 1021.3 hPa NNE 2.1 km/h 3.5 km/h 72.3% 0.0 mm 0 W/m2
20:24 3.5 °C -1.2 °C 1021.3 hPa NNE 2.3 km/h 4 km/h 71.5% 0.0 mm 0 W/m2
20:29 3.5 °C -1.2 °C 1021.3 hPa NNE 3 km/h 4.3 km/h 71.2% 0.0 mm 0 W/m2
20:34 3.5 °C -1.3 °C 1021.3 hPa NNE 2.4 km/h 4.7 km/h 71% 0.0 mm 0 W/m2
20:39 3.5 °C -1.2 °C 1021.3 hPa NNE 2.5 km/h 3.5 km/h 71.7% 0.0 mm 0 W/m2
20:44 3.5 °C -1.1 °C 1021.3 hPa NE 2.9 km/h 4.7 km/h 72% 0.0 mm 0 W/m2
20:49 3.5 °C -1.1 °C 1021.3 hPa NE 3.4 km/h 5 km/h 72.2% 0.0 mm 0 W/m2
20:54 3.5 °C -1.1 °C 1021.3 hPa NNE 2.8 km/h 4.3 km/h 72% 0.0 mm 0 W/m2
20:59 3.5 °C -1.1 °C 1021.7 hPa NNE 3.2 km/h 4.7 km/h 71.9% 0.0 mm 0 W/m2
21:04 3.5 °C -1.3 °C 1021.7 hPa NNE 2.2 km/h 4.7 km/h 71% 0.0 mm 0 W/m2
21:09 3.5 °C -1.4 °C 1021.7 hPa NNE 2.9 km/h 5 km/h 70.1% 0.0 mm 0 W/m2
21:14 3.5 °C -1.2 °C 1021.7 hPa North 2.7 km/h 4.3 km/h 71.2% 0.0 mm 0 W/m2
21:19 3.5 °C -1.2 °C 1021.7 hPa NNE 2.5 km/h 4.3 km/h 71.2% 0.0 mm 0 W/m2
21:24 3.5 °C -1.4 °C 1021.7 hPa NE 2.4 km/h 4.7 km/h 70.2% 0.0 mm 0 W/m2
21:29 3.5 °C -1.4 °C 1021.7 hPa NE 3.5 km/h 5.5 km/h 70% 0.0 mm 0 W/m2
21:34 3.5 °C -1.3 °C 1021.7 hPa NNE 2.6 km/h 3.5 km/h 70.5% 0.0 mm 0 W/m2
21:39 3.4 °C -1.3 °C 1021.7 hPa NNE 2.3 km/h 4.7 km/h 71% 0.0 mm 0 W/m2
21:44 3.5 °C -1 °C 1022.0 hPa NNE 2.9 km/h 5 km/h 72.7% 0.0 mm 0 W/m2
21:49 3.5 °C -0.4 °C 1022.0 hPa NNE 3.1 km/h 5 km/h 75.5% 0.0 mm 0 W/m2
21:54 3.5 °C -0.5 °C 1022.0 hPa NNE 3.6 km/h 5.5 km/h 75.1% 0.0 mm 0 W/m2
21:59 3.5 °C -0.3 °C 1022.0 hPa NNE 2.8 km/h 5.5 km/h 76.3% 0.0 mm 0 W/m2
22:04 3.4 °C -0.1 °C 1022.0 hPa NE 3.4 km/h 5.5 km/h 77.5% 0.0 mm 0 W/m2
22:09 3.4 °C 0.1 °C 1022.0 hPa NE 3.7 km/h 6.1 km/h 78.8% 0.0 mm 0 W/m2
22:14 3.3 °C 0.4 °C 1022.0 hPa NNE 3.6 km/h 6.1 km/h 80.8% 0.0 mm 0 W/m2
22:19 3.3 °C 0.5 °C 1022.0 hPa NNE 3.9 km/h 6.4 km/h 81.8% 0.0 mm 0 W/m2
22:24 3.3 °C 0.7 °C 1022.0 hPa North 3.4 km/h 7.2 km/h 83% 0.0 mm 0 W/m2
22:29 3.2 °C 0.7 °C 1022.0 hPa North 3.5 km/h 7.2 km/h 83.4% 0.0 mm 0 W/m2
22:34 3.2 °C 0.8 °C 1022.0 hPa NE 3.9 km/h 7.6 km/h 84% 0.0 mm 0 W/m2
22:39 3.2 °C 0.8 °C 1022.0 hPa NNE 3.7 km/h 6.1 km/h 84% 0.0 mm 0 W/m2
22:44 3.2 °C 0.8 °C 1022.0 hPa NNE 2.9 km/h 6.1 km/h 84% 0.0 mm 0 W/m2
22:49 3.2 °C 0.9 °C 1022.0 hPa NE 3.6 km/h 6.1 km/h 84.8% 0.0 mm 0 W/m2
22:54 3.2 °C 0.5 °C 1022.0 hPa NE 2.6 km/h 5.5 km/h 82.3% 0.0 mm 0 W/m2
22:59 3.1 °C 0.4 °C 1022.0 hPa NE 2.8 km/h 5.5 km/h 82.1% 0.0 mm 0 W/m2
23:04 3 °C 0.4 °C 1022.0 hPa NE 3.7 km/h 5.5 km/h 83% 0.0 mm 0 W/m2
23:09 2.9 °C 0.4 °C 1022.0 hPa NE 2.6 km/h 6.1 km/h 83.6% 0.0 mm 0 W/m2
23:14 2.9 °C 0.2 °C 1022.0 hPa NNE 1.7 km/h 4.7 km/h 82.4% 0.0 mm 0 W/m2
23:19 2.9 °C 0 °C 1022.0 hPa NNE 2.8 km/h 4.7 km/h 81% 0.0 mm 0 W/m2
23:24 2.9 °C -0.2 °C 1022.4 hPa NNE 3.3 km/h 5.5 km/h 80% 0.0 mm 0 W/m2
23:29 2.9 °C -0.2 °C 1022.4 hPa North 2.4 km/h 4.7 km/h 80% 0.0 mm 0 W/m2
23:34 2.9 °C 0 °C 1022.4 hPa North 4.1 km/h 6.1 km/h 81% 0.0 mm 0 W/m2
23:39 2.8 °C 0.1 °C 1022.4 hPa NNE 3.2 km/h 5.5 km/h 82.4% 0.0 mm 0 W/m2
23:44 2.8 °C 0.4 °C 1022.4 hPa NNE 3.2 km/h 5.8 km/h 84% 0.0 mm 0 W/m2
23:49 2.7 °C 0.6 °C 1022.4 hPa NNE 2.7 km/h 5.5 km/h 86% 0.0 mm 0 W/m2
23:54 2.7 °C 0.7 °C 1022.4 hPa North 4 km/h 6.1 km/h 86.3% 0.0 mm 0 W/m2
23:59 2.6 °C 0.7 °C 1022.0 hPa NNE 3.1 km/h 6.1 km/h 87% 0.0 mm 0 W/m2
Juneau County Weather
Compliments of Weather Underground - 2 mb